createdAt,value
2023-04-15T00:02:16.142Z,5.74
2023-04-15T00:05:04.913Z,5.72
2023-04-15T00:07:53.850Z,5.61
2023-04-15T00:10:44.219Z,5.58
2023-04-15T00:13:33.971Z,5.64
2023-04-15T00:16:22.562Z,5.61
2023-04-15T00:19:11.294Z,5.56
2023-04-15T00:22:01.525Z,5.60
2023-04-15T00:24:49.996Z,5.64
2023-04-15T00:27:39.772Z,5.67
2023-04-15T00:30:28.334Z,5.69
2023-04-15T00:33:17.650Z,5.69
2023-04-15T00:36:08.505Z,5.68
2023-04-15T00:38:57.023Z,5.63
2023-04-15T00:41:45.786Z,5.59
2023-04-15T00:44:35.625Z,5.43
2023-04-15T00:47:25.021Z,5.52
2023-04-15T00:50:13.783Z,5.49
2023-04-15T00:53:02.558Z,5.44
2023-04-15T00:55:51.207Z,5.46
2023-04-15T00:58:39.725Z,5.43
2023-04-15T01:01:29.706Z,5.39
2023-04-15T01:04:18.356Z,5.44
2023-04-15T01:07:06.901Z,5.45
2023-04-15T01:09:55.665Z,5.46
2023-04-15T01:12:44.551Z,5.33
2023-04-15T01:15:33.701Z,5.32
2023-04-15T01:18:23.864Z,5.29
2023-04-15T01:21:12.575Z,5.25
2023-04-15T01:24:01.455Z,5.25
2023-04-15T01:26:51.978Z,5.29
2023-04-15T01:29:40.700Z,5.11
2023-04-15T01:32:29.281Z,5.23
2023-04-15T01:35:18.196Z,5.22
2023-04-15T01:38:07.770Z,5.29
2023-04-15T01:40:56.322Z,5.25
2023-04-15T01:43:46.303Z,5.29
2023-04-15T01:46:35.255Z,5.13
2023-04-15T01:49:23.994Z,5.21
2023-04-15T01:52:12.451Z,5.28
2023-04-15T01:55:01.034Z,5.28
2023-04-15T01:57:49.578Z,5.25
2023-04-15T02:00:39.427Z,5.26
2023-04-15T02:03:28.186Z,5.23
2023-04-15T02:06:16.756Z,5.26
2023-04-15T02:09:05.243Z,5.32
2023-04-15T02:11:54.347Z,5.16
2023-04-15T02:14:42.880Z,5.18
2023-04-15T02:17:35.697Z,5.12
2023-04-15T02:20:24.515Z,5.20
2023-04-15T02:23:12.973Z,5.06
2023-04-15T02:26:01.508Z,5.14
2023-04-15T02:28:51.304Z,5.10
2023-04-15T02:31:41.009Z,5.03
2023-04-15T02:34:31.515Z,5.14
2023-04-15T02:37:20.394Z,5.08
2023-04-15T02:40:11.898Z,4.98
2023-04-15T02:43:00.892Z,4.96
2023-04-15T02:45:49.489Z,4.86
2023-04-15T02:48:38.028Z,4.77
2023-04-15T02:51:32.027Z,4.63
2023-04-15T02:54:22.741Z,4.40
2023-04-15T02:57:11.797Z,4.64
2023-04-15T03:00:00.275Z,4.32
2023-04-15T03:02:52.286Z,4.47
2023-04-15T03:05:40.992Z,4.37
2023-04-15T03:08:30.839Z,4.32
2023-04-15T03:11:19.627Z,4.23
2023-04-15T03:14:08.182Z,4.18
2023-04-15T03:16:56.681Z,3.94
2023-04-15T03:19:45.370Z,3.94
2023-04-15T03:22:34.076Z,4.05
2023-04-15T03:25:23.916Z,3.89
2023-04-15T03:28:12.470Z,3.88
2023-04-15T03:31:01.420Z,3.93
2023-04-15T03:33:50.078Z,3.93
2023-04-15T03:36:38.582Z,3.91
2023-04-15T03:39:27.424Z,3.95
2023-04-15T03:42:17.272Z,3.70
2023-04-15T03:45:07.567Z,3.66
2023-04-15T03:47:56.551Z,3.65
2023-04-15T03:50:46.145Z,3.63
2023-04-15T03:53:34.671Z,3.55
2023-04-15T03:56:23.131Z,3.46
2023-04-15T03:59:12.983Z,3.37
2023-04-15T04:02:01.600Z,3.35
2023-04-15T04:04:50.259Z,3.36
2023-04-15T04:07:38.865Z,3.41
2023-04-15T04:10:27.668Z,3.42
2023-04-15T04:13:16.410Z,3.34
2023-04-15T04:16:07.160Z,3.28
2023-04-15T04:18:55.866Z,3.50
2023-04-15T04:21:44.338Z,3.47
2023-04-15T04:24:32.840Z,3.42
2023-04-15T04:27:21.365Z,3.31
2023-04-15T04:30:10.317Z,3.14
2023-04-15T04:33:00.420Z,3.10
2023-04-15T04:35:48.850Z,3.14
2023-04-15T04:38:37.393Z,3.06
2023-04-15T04:41:26.082Z,3.04
2023-04-15T04:44:14.573Z,3.09
2023-04-15T04:47:03.055Z,3.07
2023-04-15T04:49:52.978Z,2.81
2023-04-15T04:52:41.595Z,3.08
2023-04-15T04:55:30.234Z,3.04
2023-04-15T04:58:18.745Z,3.12
2023-04-15T05:01:07.829Z,3.00
2023-04-15T05:03:56.565Z,3.07
2023-04-15T05:06:46.494Z,3.07
2023-04-15T05:09:36.661Z,3.05
2023-04-15T05:12:25.178Z,2.97
2023-04-15T05:15:13.671Z,3.03
2023-04-15T05:18:02.338Z,3.08
2023-04-15T05:20:51.009Z,3.20
2023-04-15T05:23:41.235Z,3.24
2023-04-15T05:26:29.737Z,3.14
2023-04-15T05:29:18.445Z,2.97
2023-04-15T05:32:07.770Z,3.34
2023-04-15T05:34:56.312Z,3.45
2023-04-15T05:37:45.058Z,3.55
2023-04-15T05:40:34.874Z,3.81
2023-04-15T05:43:23.373Z,3.93
2023-04-15T05:46:12.172Z,4.06
2023-04-15T05:49:00.964Z,3.98
2023-04-15T05:51:49.648Z,4.13
2023-04-15T05:54:39.009Z,4.01
2023-04-15T05:57:28.921Z,4.33
2023-04-15T06:00:17.677Z,4.47
2023-04-15T06:03:06.370Z,4.47
2023-04-15T06:05:54.878Z,4.71
2023-04-15T06:08:43.635Z,4.89
2023-04-15T06:11:32.395Z,5.15
2023-04-15T06:14:22.217Z,5.20
2023-04-15T06:17:10.799Z,5.33
2023-04-15T06:19:59.275Z,5.41
2023-04-15T06:22:47.849Z,5.54
2023-04-15T06:25:36.358Z,5.46
2023-04-15T06:28:24.872Z,5.46
2023-04-15T06:31:15.478Z,5.56
2023-04-15T06:34:03.959Z,5.80
2023-04-15T06:36:52.492Z,6.13
2023-04-15T06:39:40.978Z,6.37
2023-04-15T06:42:29.459Z,6.58
2023-04-15T06:45:18.108Z,6.28
2023-04-15T06:48:08.254Z,6.46
2023-04-15T06:50:58.191Z,6.59
2023-04-15T06:53:46.655Z,6.71
2023-04-15T06:56:35.232Z,6.90
2023-04-15T06:59:24.080Z,7.19
2023-04-15T07:02:13.691Z,7.10
2023-04-15T07:05:04.666Z,7.82
2023-04-15T07:07:53.231Z,8.09
2023-04-15T07:10:42.002Z,8.18
2023-04-15T07:13:32.631Z,8.58
2023-04-15T07:16:21.230Z,9.05
2023-04-15T07:19:09.791Z,9.44
2023-04-15T07:21:59.947Z,10.08
2023-04-15T07:24:48.430Z,10.26
2023-04-15T07:27:36.948Z,10.69
2023-04-15T07:30:25.450Z,11.01
2023-04-15T07:33:13.950Z,10.93
2023-04-15T07:36:02.663Z,10.86
2023-04-15T07:38:53.630Z,10.99
2023-04-15T07:41:42.103Z,11.14
2023-04-15T07:44:31.017Z,11.27
2023-04-15T07:47:19.517Z,11.36
2023-04-15T07:50:08.921Z,11.34
2023-04-15T07:52:57.854Z,11.22
2023-04-15T07:55:47.668Z,11.24
2023-04-15T07:58:36.154Z,11.36
2023-04-15T08:01:24.660Z,11.44
2023-04-15T08:04:13.683Z,11.17
2023-04-15T08:07:02.340Z,11.71
2023-04-15T08:09:50.859Z,11.92
2023-04-15T08:12:40.776Z,12.19
2023-04-15T08:15:29.320Z,12.71
2023-04-15T08:18:17.781Z,13.00
2023-04-15T08:21:06.600Z,13.37
2023-04-15T08:23:55.493Z,13.36
2023-04-15T08:26:47.229Z,13.60
2023-04-15T08:29:37.041Z,13.70
2023-04-15T08:32:26.653Z,13.96
2023-04-15T08:35:15.289Z,13.97
2023-04-15T08:38:03.732Z,14.12
2023-04-15T08:40:52.476Z,14.12
2023-04-15T08:43:48.594Z,14.45
2023-04-15T08:46:39.573Z,14.68
2023-04-15T08:49:28.758Z,14.77
2023-04-15T08:52:17.242Z,14.70
2023-04-15T08:55:06.897Z,14.75
2023-04-15T08:57:55.309Z,14.89
2023-04-15T09:00:44.120Z,15.13
2023-04-15T09:03:34.689Z,15.19
2023-04-15T09:06:23.813Z,15.28
2023-04-15T09:09:14.284Z,15.22
2023-04-15T09:12:02.814Z,15.06
2023-04-15T09:14:52.077Z,14.85
2023-04-15T09:17:43.977Z,14.83
2023-04-15T09:20:40.779Z,14.74
2023-04-15T09:23:29.229Z,14.76
2023-04-15T09:26:17.974Z,14.72
2023-04-15T09:29:08.302Z,14.62
2023-04-15T09:31:56.799Z,14.71
2023-04-15T09:34:45.923Z,14.63
2023-04-15T09:37:38.833Z,14.50
2023-04-15T09:40:34.596Z,14.29
2023-04-15T09:43:23.310Z,14.58
2023-04-15T09:46:11.861Z,14.65
2023-04-15T09:49:09.305Z,14.66
2023-04-15T09:52:05.520Z,14.84
2023-04-15T09:54:57.947Z,14.82
2023-04-15T09:57:47.448Z,14.88
2023-04-15T10:00:36.236Z,14.90
2023-04-15T10:03:27.606Z,14.93
2023-04-15T10:06:16.374Z,14.87
2023-04-15T10:09:04.994Z,14.86
2023-04-15T10:11:54.795Z,15.19
2023-04-15T10:14:44.549Z,14.79
2023-04-15T10:17:35.534Z,15.33
2023-04-15T10:20:24.417Z,15.39
2023-04-15T10:23:13.516Z,14.89
2023-04-15T10:26:02.288Z,15.64
2023-04-15T10:28:53.531Z,15.75
2023-04-15T10:31:42.380Z,15.96
2023-04-15T10:34:31.204Z,16.23
2023-04-15T10:37:23.400Z,16.38
2023-04-15T10:40:28.825Z,16.34
2023-04-15T10:43:27.000Z,16.35
2023-04-15T10:46:19.606Z,16.36
2023-04-15T10:49:10.974Z,16.46
2023-04-15T10:52:00.925Z,16.49
2023-04-15T10:54:49.474Z,16.35
2023-04-15T10:57:40.349Z,16.48
2023-04-15T11:00:31.008Z,16.68
2023-04-15T11:03:38.019Z,15.89
2023-04-15T11:06:44.977Z,15.41
2023-04-15T11:09:34.097Z,15.81
2023-04-15T11:12:22.595Z,15.54
2023-04-15T11:15:29.447Z,15.41
2023-04-15T11:18:20.507Z,15.59
2023-04-15T11:21:09.723Z,15.69
2023-04-15T11:23:58.188Z,15.77
2023-04-15T11:26:46.680Z,15.99
2023-04-15T11:29:35.349Z,16.23
2023-04-15T11:32:24.071Z,16.27
2023-04-15T11:35:13.928Z,16.14
2023-04-15T11:38:04.509Z,16.22
2023-04-15T11:40:53.319Z,16.39
2023-04-15T11:43:42.117Z,16.54
2023-04-15T11:46:31.681Z,16.41
2023-04-15T11:49:30.088Z,16.57
2023-04-15T11:52:20.175Z,16.62
2023-04-15T11:55:09.405Z,16.60
2023-04-15T11:58:09.435Z,16.12
2023-04-15T12:00:59.988Z,16.46
2023-04-15T12:03:49.564Z,16.32
2023-04-15T12:06:39.132Z,16.24
2023-04-15T12:09:29.963Z,16.31
2023-04-15T12:12:19.999Z,16.31
2023-04-15T12:15:11.424Z,16.34
2023-04-15T12:17:59.943Z,16.57
2023-04-15T12:20:50.331Z,16.54
2023-04-15T12:23:39.177Z,16.75
2023-04-15T12:26:30.533Z,16.91
2023-04-15T12:29:19.395Z,16.87
2023-04-15T12:32:09.180Z,16.89
2023-04-15T12:34:58.177Z,16.61
2023-04-15T12:37:46.632Z,16.58
2023-04-15T12:40:35.266Z,16.76
2023-04-15T12:43:25.137Z,16.65
2023-04-15T12:46:14.001Z,16.85
2023-04-15T12:49:02.815Z,17.02
2023-04-15T12:51:52.699Z,16.98
2023-04-15T12:54:41.197Z,17.00
2023-04-15T12:57:29.766Z,16.53
2023-04-15T13:00:19.910Z,16.16
2023-04-15T13:03:08.551Z,16.19
2023-04-15T13:05:57.736Z,16.01
2023-04-15T13:08:57.284Z,16.07
2023-04-15T13:11:46.626Z,15.99
2023-04-15T13:14:35.128Z,15.91
2023-04-15T13:17:25.104Z,15.84
2023-04-15T13:20:13.718Z,15.80
2023-04-15T13:23:02.210Z,15.84
2023-04-15T13:25:50.714Z,15.69
2023-04-15T13:28:39.405Z,15.78
2023-04-15T13:31:28.265Z,15.67
2023-04-15T13:34:18.274Z,15.53
2023-04-15T13:37:10.379Z,15.41
2023-04-15T13:39:58.928Z,15.42
2023-04-15T13:42:47.464Z,15.25
2023-04-15T13:45:36.247Z,15.20
2023-04-15T13:48:24.867Z,14.90
2023-04-15T13:51:14.745Z,14.96
2023-04-15T13:54:03.605Z,14.80
2023-04-15T13:56:52.462Z,14.94
2023-04-15T13:59:41.116Z,14.99
2023-04-15T14:02:29.917Z,14.79
2023-04-15T14:05:18.686Z,14.69
2023-04-15T14:08:08.785Z,14.64
2023-04-15T14:10:57.729Z,14.67
2023-04-15T14:13:46.354Z,14.60
2023-04-15T14:16:35.081Z,14.25
2023-04-15T14:19:23.675Z,14.57
2023-04-15T14:22:12.339Z,14.38
2023-04-15T14:25:06.436Z,14.45
2023-04-15T14:27:54.963Z,14.61
2023-04-15T14:30:43.747Z,14.56
2023-04-15T14:33:33.524Z,14.48
2023-04-15T14:36:22.121Z,14.51
2023-04-15T14:39:10.651Z,14.46
2023-04-15T14:42:00.536Z,14.31
2023-04-15T14:44:48.979Z,14.50
2023-04-15T14:47:37.714Z,14.65
2023-04-15T14:50:26.197Z,14.60
2023-04-15T14:53:14.684Z,14.60
2023-04-15T14:56:03.183Z,14.64
2023-04-15T14:58:54.173Z,14.68
2023-04-15T15:01:42.833Z,14.09
2023-04-15T15:04:33.331Z,14.54
2023-04-15T15:07:21.942Z,14.60
2023-04-15T15:10:10.557Z,14.55
2023-04-15T15:12:59.282Z,14.66
2023-04-15T15:15:52.219Z,14.57
2023-04-15T15:18:40.772Z,14.51
2023-04-15T15:21:29.483Z,14.49
2023-04-15T15:24:18.115Z,14.48
2023-04-15T15:27:06.671Z,14.46
2023-04-15T15:29:55.717Z,14.38
2023-04-15T15:32:45.805Z,14.40
2023-04-15T15:35:34.390Z,14.40
2023-04-15T15:38:23.423Z,14.48
2023-04-15T15:41:12.187Z,14.46
2023-04-15T15:44:00.952Z,14.18
2023-04-15T15:46:49.561Z,14.42
2023-04-15T15:49:39.452Z,14.42
2023-04-15T15:52:28.006Z,14.36
2023-04-15T15:55:16.488Z,14.32
2023-04-15T15:58:04.957Z,14.23
2023-04-15T16:00:53.524Z,14.16
2023-04-15T16:03:42.626Z,14.13
2023-04-15T16:06:34.927Z,13.50
2023-04-15T16:09:23.749Z,13.54
2023-04-15T16:12:12.308Z,13.58
2023-04-15T16:15:00.931Z,12.60
2023-04-15T16:17:49.573Z,13.15
2023-04-15T16:20:39.208Z,13.17
2023-04-15T16:23:29.115Z,13.03
2023-04-15T16:26:17.890Z,12.84
2023-04-15T16:29:06.479Z,12.81
2023-04-15T16:31:56.345Z,12.47
2023-04-15T16:34:44.928Z,12.83
2023-04-15T16:37:34.538Z,12.62
2023-04-15T16:40:24.352Z,12.65
2023-04-15T16:43:12.776Z,12.75
2023-04-15T16:46:01.469Z,12.71
2023-04-15T16:48:50.054Z,12.51
2023-04-15T16:51:38.666Z,12.41
2023-04-15T16:54:29.072Z,12.30
2023-04-15T16:57:18.963Z,11.93
2023-04-15T17:00:08.791Z,11.94
2023-04-15T17:02:57.992Z,12.07
2023-04-15T17:05:46.871Z,11.88
2023-04-15T17:08:35.367Z,11.82
2023-04-15T17:11:23.861Z,11.87
2023-04-15T17:14:13.715Z,11.73
2023-04-15T17:17:02.782Z,11.34
2023-04-15T17:19:51.366Z,11.61
2023-04-15T17:22:39.885Z,11.55
2023-04-15T17:25:28.422Z,11.56
2023-04-15T17:28:16.972Z,11.51
2023-04-15T17:31:07.389Z,11.42
2023-04-15T17:34:05.119Z,11.37
2023-04-15T17:36:57.818Z,11.21
2023-04-15T17:39:46.430Z,11.27
2023-04-15T17:42:34.925Z,11.28
2023-04-15T17:45:23.462Z,11.22
2023-04-15T17:48:13.483Z,11.16
2023-04-15T17:51:02.276Z,11.01
2023-04-15T17:53:51.599Z,10.76
2023-04-15T17:56:40.067Z,10.93
2023-04-15T17:59:28.820Z,10.79
2023-04-15T18:02:17.450Z,10.77
2023-04-15T18:05:08.371Z,10.68
2023-04-15T18:07:56.895Z,10.87
2023-04-15T18:10:45.345Z,10.81
2023-04-15T18:13:33.930Z,10.77
2023-04-15T18:16:22.690Z,10.43
2023-04-15T18:19:12.489Z,10.68
2023-04-15T18:22:03.233Z,10.66
2023-04-15T18:24:51.725Z,10.63
2023-04-15T18:27:40.371Z,10.31
2023-04-15T18:30:28.994Z,10.70
2023-04-15T18:33:17.502Z,10.64
2023-04-15T18:36:06.162Z,10.56
2023-04-15T18:38:56.035Z,10.47
2023-04-15T18:41:44.836Z,10.46
2023-04-15T18:44:33.474Z,10.35
2023-04-15T18:47:22.094Z,10.31
2023-04-15T18:50:10.943Z,10.20
2023-04-15T18:52:59.693Z,10.27
2023-04-15T18:55:49.585Z,10.21
2023-04-15T18:59:27.845Z,10.13
2023-04-15T19:01:46.762Z,10.18
2023-04-15T19:04:35.348Z,10.06
2023-04-15T19:07:24.031Z,10.07
2023-04-15T19:10:12.971Z,10.09
2023-04-15T19:13:04.302Z,10.05
2023-04-15T19:15:53.584Z,10.05
2023-04-15T19:18:43.004Z,10.04
2023-04-15T19:21:32.952Z,9.98
2023-04-15T19:24:21.563Z,9.93
2023-04-15T19:27:10.182Z,9.90
2023-04-15T19:30:00.425Z,9.95
2023-04-15T19:32:49.066Z,9.87
2023-04-15T19:35:38.204Z,9.82
2023-04-15T19:38:27.350Z,9.78
2023-04-15T19:41:16.678Z,9.75
2023-04-15T19:44:05.716Z,9.77
2023-04-15T19:46:55.749Z,9.64
2023-04-15T19:49:44.744Z,9.64
2023-04-15T19:52:33.261Z,9.69
2023-04-15T19:55:21.700Z,9.68
2023-04-15T19:58:10.404Z,9.72
2023-04-15T20:01:00.449Z,9.69
2023-04-15T20:03:50.647Z,9.26
2023-04-15T20:06:39.345Z,9.73
2023-04-15T20:09:27.898Z,9.59
2023-04-15T20:12:51.184Z,9.69
2023-04-15T20:15:25.020Z,9.70
2023-04-15T20:18:13.537Z,9.74
2023-04-15T20:21:03.390Z,9.74
2023-04-15T20:23:51.881Z,9.64
2023-04-15T20:26:40.482Z,9.34
2023-04-15T20:29:29.047Z,9.63
2023-04-15T20:32:18.334Z,9.69
2023-04-15T20:35:07.802Z,9.64
2023-04-15T20:37:57.808Z,9.28
2023-04-15T20:40:46.614Z,9.61
2023-04-15T20:43:35.050Z,9.55
2023-04-15T20:46:25.905Z,9.55
2023-04-15T20:49:15.848Z,9.58
2023-04-15T20:52:04.449Z,9.65
2023-04-15T20:54:54.317Z,9.64
2023-04-15T20:57:43.087Z,9.55
2023-04-15T21:00:32.928Z,9.62
2023-04-15T21:03:21.623Z,9.68
2023-04-15T21:06:10.102Z,9.69
2023-04-15T21:08:58.588Z,9.67
2023-04-15T21:14:40.734Z,9.67
2023-04-15T21:17:29.262Z,9.74
2023-04-15T21:20:17.927Z,9.66
2023-04-15T21:23:06.433Z,9.63
2023-04-15T21:25:54.923Z,9.63
2023-04-15T21:28:44.930Z,9.57
2023-04-15T21:31:33.641Z,9.54
2023-04-15T21:34:22.147Z,9.31
2023-04-15T21:37:10.922Z,9.44
2023-04-15T21:39:59.604Z,9.54
2023-04-15T21:42:48.884Z,9.45
2023-04-15T21:45:39.758Z,9.53
2023-04-15T21:48:28.368Z,9.46
2023-04-15T21:51:16.981Z,9.22
2023-04-15T21:54:05.603Z,9.49
2023-04-15T21:56:54.131Z,9.45
2023-04-15T21:59:42.629Z,9.46
2023-04-15T22:02:32.636Z,9.48
2023-04-15T22:05:21.332Z,9.48
2023-04-15T22:08:09.786Z,9.38
2023-04-15T22:10:58.408Z,9.45
2023-04-15T22:13:46.954Z,9.42
2023-04-15T22:16:35.556Z,9.44
2023-04-15T22:19:25.944Z,9.41
2023-04-15T22:22:14.580Z,9.34
2023-04-15T22:25:03.284Z,9.34
2023-04-15T22:27:51.777Z,9.42
2023-04-15T22:30:40.619Z,9.31
2023-04-15T22:33:29.173Z,9.37
2023-04-15T22:36:19.012Z,9.46
2023-04-15T22:39:07.762Z,9.45
2023-04-15T22:41:56.737Z,9.44
2023-04-15T22:44:45.205Z,9.44
2023-04-15T22:47:33.764Z,9.44
2023-04-15T22:50:22.489Z,9.45
2023-04-15T22:53:12.446Z,9.43
2023-04-15T22:56:00.960Z,9.42
2023-04-15T22:58:50.118Z,9.41
2023-04-15T23:01:39.062Z,9.41
2023-04-15T23:04:29.401Z,9.41
2023-04-15T23:07:18.213Z,9.44
2023-04-15T23:10:09.335Z,9.48
2023-04-15T23:12:57.900Z,9.45
2023-04-15T23:15:46.409Z,9.45
2023-04-15T23:18:35.336Z,9.48
2023-04-15T23:21:25.960Z,9.45
2023-04-15T23:24:14.628Z,9.49
2023-04-15T23:27:04.566Z,9.51
2023-04-15T23:29:53.058Z,9.52
2023-04-15T23:32:41.547Z,9.51
2023-04-15T23:35:30.299Z,9.49
2023-04-15T23:38:18.837Z,9.53
2023-04-15T23:41:07.292Z,9.49
2023-04-15T23:43:57.407Z,9.50
2023-04-15T23:46:45.945Z,9.49
2023-04-15T23:49:34.452Z,9.49
2023-04-15T23:52:23.105Z,9.51
2023-04-15T23:55:11.628Z,9.54
2023-04-15T23:58:00.240Z,9.53
